createdAt,value
2023-03-20T00:00:00.744Z,8.10
2023-03-20T00:01:00.659Z,8.10
2023-03-20T00:02:01.072Z,8.10
2023-03-20T00:03:00.955Z,8.10
2023-03-20T00:04:00.759Z,8.10
2023-03-20T00:05:00.787Z,8.10
2023-03-20T00:06:00.668Z,8.10
2023-03-20T00:07:00.688Z,8.10
2023-03-20T00:08:00.674Z,8.10
2023-03-20T00:09:00.644Z,8.10
2023-03-20T00:10:00.673Z,8.10
2023-03-20T00:11:00.646Z,8.10
2023-03-20T00:12:00.681Z,8.10
2023-03-20T00:13:01.209Z,8.10
2023-03-20T00:14:03.361Z,8.10
2023-03-20T00:15:02.289Z,8.10
2023-03-20T00:16:00.742Z,8.10
2023-03-20T00:17:00.954Z,8.10
2023-03-20T00:18:00.784Z,8.10
2023-03-20T00:19:01.063Z,8.10
2023-03-20T00:20:00.653Z,8.10
2023-03-20T00:21:00.680Z,8.10
2023-03-20T00:22:00.674Z,8.10
2023-03-20T00:23:00.652Z,8.10
2023-03-20T00:24:00.710Z,8.10
2023-03-20T00:25:00.664Z,8.10
2023-03-20T00:26:00.652Z,8.10
2023-03-20T00:27:00.701Z,8.10
2023-03-20T00:28:10.555Z,9.10
2023-03-20T00:29:00.965Z,9.10
2023-03-20T00:30:00.679Z,9.10
2023-03-20T00:31:00.796Z,9.10
2023-03-20T00:32:00.673Z,9.10
2023-03-20T00:33:00.699Z,9.10
2023-03-20T00:34:02.715Z,9.10
2023-03-20T00:35:01.766Z,9.10
2023-03-20T00:36:00.719Z,9.10
2023-03-20T00:37:00.633Z,9.10
2023-03-20T00:38:00.650Z,9.10
2023-03-20T00:39:00.783Z,9.10
2023-03-20T00:40:00.664Z,9.10
2023-03-20T00:41:00.744Z,9.10
2023-03-20T00:42:02.092Z,9.10
2023-03-20T00:43:01.588Z,9.10
2023-03-20T00:44:03.733Z,9.10
2023-03-20T00:45:00.668Z,9.10
2023-03-20T00:46:00.640Z,9.10
2023-03-20T00:47:02.287Z,9.10
2023-03-20T00:48:00.852Z,9.10
2023-03-20T00:49:00.680Z,9.10
2023-03-20T00:50:00.664Z,9.10
2023-03-20T00:51:00.656Z,9.10
2023-03-20T00:52:01.579Z,9.10
2023-03-20T00:53:00.666Z,9.10
2023-03-20T00:54:00.646Z,9.10
2023-03-20T00:55:00.632Z,9.10
2023-03-20T00:56:01.111Z,9.10
2023-03-20T00:57:02.768Z,9.10
2023-03-20T00:58:01.314Z,7.90
2023-03-20T00:59:01.896Z,7.90
2023-03-20T01:00:05.503Z,7.90
2023-03-20T01:01:00.696Z,7.90
2023-03-20T01:02:01.340Z,7.90
2023-03-20T01:03:01.088Z,7.90
2023-03-20T01:04:00.653Z,7.90
2023-03-20T01:05:01.073Z,7.90
2023-03-20T01:06:00.642Z,7.90
2023-03-20T01:07:00.671Z,7.90
2023-03-20T01:08:00.685Z,7.90
2023-03-20T01:09:00.640Z,7.90
2023-03-20T01:10:00.659Z,7.90
2023-03-20T01:11:00.699Z,7.90
2023-03-20T01:12:01.525Z,7.90
2023-03-20T01:13:00.786Z,7.90
2023-03-20T01:14:01.452Z,7.90
2023-03-20T01:15:00.750Z,7.90
2023-03-20T01:16:00.791Z,7.90
2023-03-20T01:17:00.641Z,7.90
2023-03-20T01:18:00.634Z,7.90
2023-03-20T01:19:00.695Z,7.90
2023-03-20T01:20:00.649Z,7.90
2023-03-20T01:21:00.692Z,7.90
2023-03-20T01:22:00.684Z,7.90
2023-03-20T01:23:00.650Z,7.90
2023-03-20T01:24:00.648Z,7.90
2023-03-20T01:25:00.685Z,7.90
2023-03-20T01:26:00.693Z,7.90
2023-03-20T01:27:00.657Z,7.90
2023-03-20T01:28:00.773Z,8.70
2023-03-20T01:29:00.618Z,8.70
2023-03-20T01:30:00.716Z,8.70
2023-03-20T01:31:00.613Z,8.70
2023-03-20T01:32:00.691Z,8.70
2023-03-20T01:33:05.345Z,8.70
2023-03-20T01:34:02.091Z,8.70
2023-03-20T01:35:00.635Z,8.70
2023-03-20T01:36:00.838Z,8.70
2023-03-20T01:37:00.655Z,8.70
2023-03-20T01:38:00.641Z,8.70
2023-03-20T01:39:00.619Z,8.70
2023-03-20T01:40:00.971Z,8.70
2023-03-20T01:41:05.233Z,8.70
2023-03-20T01:42:01.543Z,8.70
2023-03-20T01:43:00.948Z,8.70
2023-03-20T01:44:05.661Z,8.70
2023-03-20T01:45:00.626Z,8.70
2023-03-20T01:46:10.615Z,8.70
2023-03-20T01:47:01.798Z,8.70
2023-03-20T01:48:10.569Z,8.70
2023-03-20T01:49:06.779Z,8.70
2023-03-20T01:50:10.528Z,8.70
2023-03-20T01:51:00.641Z,8.70
2023-03-20T01:52:00.749Z,8.70
2023-03-20T01:53:07.086Z,8.70
2023-03-20T01:54:04.674Z,8.70
2023-03-20T01:55:00.630Z,8.70
2023-03-20T01:56:00.625Z,8.70
2023-03-20T01:57:00.638Z,8.70
2023-03-20T01:58:04.828Z,8.60
2023-03-20T01:59:04.186Z,8.60
2023-03-20T02:00:03.931Z,8.60
2023-03-20T02:01:00.859Z,8.60
2023-03-20T02:02:00.789Z,8.60
2023-03-20T02:03:00.828Z,8.60
2023-03-20T02:04:00.695Z,8.60
2023-03-20T02:05:02.222Z,8.60
2023-03-20T02:06:00.657Z,8.60
2023-03-20T02:07:01.838Z,8.60
2023-03-20T02:08:08.357Z,8.60
2023-03-20T02:09:00.959Z,8.60
2023-03-20T02:10:01.445Z,8.60
2023-03-20T02:11:01.552Z,8.60
2023-03-20T02:12:01.544Z,8.60
2023-03-20T02:13:01.942Z,8.60
2023-03-20T02:14:01.255Z,8.60
2023-03-20T02:15:00.880Z,8.60
2023-03-20T02:16:03.629Z,8.60
2023-03-20T02:17:03.079Z,8.60
2023-03-20T02:18:00.885Z,8.60
2023-03-20T02:19:01.121Z,8.60
2023-03-20T02:20:10.558Z,8.60
2023-03-20T02:21:10.549Z,8.60
2023-03-20T02:22:01.628Z,8.60
2023-03-20T02:23:03.910Z,8.60
2023-03-20T02:24:10.553Z,8.60
2023-03-20T02:25:10.574Z,8.60
2023-03-20T02:26:10.551Z,8.60
2023-03-20T02:27:10.547Z,8.60
2023-03-20T02:28:10.550Z,5.80
2023-03-20T02:29:10.587Z,5.80
2023-03-20T02:30:10.548Z,5.80
2023-03-20T02:31:04.017Z,5.80
2023-03-20T02:32:10.556Z,5.80
2023-03-20T02:33:10.642Z,5.80
2023-03-20T02:34:00.611Z,5.80
2023-03-20T02:35:10.598Z,5.80
2023-03-20T02:36:10.777Z,5.80
2023-03-20T02:37:10.613Z,5.80
2023-03-20T02:38:10.593Z,5.80
2023-03-20T02:39:03.881Z,5.80
2023-03-20T02:40:03.879Z,5.80
2023-03-20T02:41:09.654Z,5.80
2023-03-20T02:42:09.491Z,5.80
2023-03-20T02:43:06.290Z,5.80
2023-03-20T02:44:10.611Z,5.80
2023-03-20T02:45:10.612Z,5.80
2023-03-20T02:46:08.170Z,5.80
2023-03-20T02:47:04.615Z,5.80
2023-03-20T02:48:03.893Z,5.80
2023-03-20T02:49:04.635Z,5.80
2023-03-20T02:50:09.842Z,5.80
2023-03-20T02:51:00.609Z,5.80
2023-03-20T02:52:10.637Z,5.80
2023-03-20T02:53:10.604Z,5.80
2023-03-20T02:54:00.670Z,5.80
2023-03-20T02:55:08.953Z,5.80
2023-03-20T02:56:10.298Z,5.80
2023-03-20T02:57:03.318Z,5.80
2023-03-20T02:58:06.635Z,11.30
2023-03-20T02:59:00.598Z,11.30
2023-03-20T03:00:08.987Z,11.30
2023-03-20T03:01:10.462Z,11.30
2023-03-20T03:02:05.860Z,11.30
2023-03-20T03:03:10.584Z,11.30
2023-03-20T03:04:05.423Z,11.30
2023-03-20T03:05:02.898Z,11.30
2023-03-20T03:06:03.723Z,11.30
2023-03-20T03:07:02.397Z,11.30
2023-03-20T03:08:01.877Z,11.30
2023-03-20T03:09:10.578Z,11.30
2023-03-20T03:10:04.646Z,11.30
2023-03-20T03:11:03.899Z,11.30
2023-03-20T03:12:04.873Z,11.30
2023-03-20T03:13:02.551Z,11.30
2023-03-20T03:14:01.087Z,11.30
2023-03-20T03:15:03.744Z,11.30
2023-03-20T03:16:05.646Z,11.30
2023-03-20T03:17:02.231Z,11.30
2023-03-20T03:18:01.814Z,11.30
2023-03-20T03:19:04.287Z,11.30
2023-03-20T03:20:03.906Z,11.30
2023-03-20T03:21:02.821Z,11.30
2023-03-20T03:22:00.636Z,11.30
2023-03-20T03:23:00.975Z,11.30
2023-03-20T03:24:01.160Z,11.30
2023-03-20T03:25:00.650Z,11.30
2023-03-20T03:26:03.169Z,11.30
2023-03-20T03:27:02.288Z,11.30
2023-03-20T03:28:10.541Z,8.90
2023-03-20T03:29:04.584Z,8.90
2023-03-20T03:30:07.048Z,8.90
2023-03-20T03:31:01.141Z,8.90
2023-03-20T03:32:01.414Z,8.90
2023-03-20T03:33:08.167Z,8.90
2023-03-20T03:34:00.669Z,8.90
2023-03-20T03:35:02.580Z,8.90
2023-03-20T03:36:10.564Z,8.90
2023-03-20T03:37:10.548Z,8.90
2023-03-20T03:38:10.547Z,8.90
2023-03-20T03:39:08.694Z,8.90
2023-03-20T03:40:06.700Z,8.90
2023-03-20T03:41:10.548Z,8.90
2023-03-20T03:42:04.358Z,8.90
2023-03-20T03:43:03.389Z,8.90
2023-03-20T03:44:10.540Z,8.90
2023-03-20T03:45:04.051Z,8.90
2023-03-20T03:46:04.637Z,8.90
2023-03-20T03:47:00.760Z,8.90
2023-03-20T03:48:06.243Z,8.90
2023-03-20T03:49:01.524Z,8.90
2023-03-20T03:50:04.163Z,8.90
2023-03-20T03:51:04.834Z,8.90
2023-03-20T03:52:04.067Z,8.90
2023-03-20T03:53:04.553Z,8.90
2023-03-20T03:54:07.282Z,8.90
2023-03-20T03:55:07.549Z,8.90
2023-03-20T03:56:03.902Z,8.90
2023-03-20T03:57:01.068Z,8.90
2023-03-20T03:58:03.386Z,7.90
2023-03-20T03:59:02.981Z,7.90
2023-03-20T04:00:02.324Z,7.90
2023-03-20T04:01:01.608Z,7.90
2023-03-20T04:02:01.067Z,7.90
2023-03-20T04:03:00.939Z,7.90
2023-03-20T04:04:04.784Z,7.90
2023-03-20T04:05:01.100Z,7.90
2023-03-20T04:06:02.107Z,7.90
2023-03-20T04:07:00.720Z,7.90
2023-03-20T04:08:01.953Z,7.90
2023-03-20T04:09:00.713Z,7.90
2023-03-20T04:10:00.661Z,7.90
2023-03-20T04:11:00.643Z,7.90
2023-03-20T04:12:00.888Z,7.90
2023-03-20T04:13:00.774Z,7.90
2023-03-20T04:14:00.640Z,7.90
2023-03-20T04:15:03.118Z,7.90
2023-03-20T04:16:00.684Z,7.90
2023-03-20T04:17:00.614Z,7.90
2023-03-20T04:18:00.662Z,7.90
2023-03-20T04:19:00.672Z,7.90
2023-03-20T04:20:00.655Z,7.90
2023-03-20T04:21:00.677Z,7.90
2023-03-20T04:22:00.675Z,7.90
2023-03-20T04:23:00.638Z,7.90
2023-03-20T04:24:00.664Z,7.90
2023-03-20T04:25:01.463Z,7.90
2023-03-20T04:26:00.750Z,7.90
2023-03-20T04:27:00.617Z,7.90
2023-03-20T04:28:00.642Z,7.20
2023-03-20T04:29:00.641Z,7.20
2023-03-20T04:30:00.674Z,7.20
2023-03-20T04:31:01.058Z,7.20
2023-03-20T04:32:00.815Z,7.20
2023-03-20T04:33:00.740Z,7.20
2023-03-20T04:34:00.701Z,7.20
2023-03-20T04:35:00.641Z,7.20
2023-03-20T04:36:00.782Z,7.20
2023-03-20T04:37:00.698Z,7.20
2023-03-20T04:38:00.636Z,7.20
2023-03-20T04:39:00.634Z,7.20
2023-03-20T04:40:00.642Z,7.20
2023-03-20T04:41:00.717Z,7.20
2023-03-20T04:42:00.675Z,7.20
2023-03-20T04:43:00.652Z,7.20
2023-03-20T04:44:01.340Z,7.20
2023-03-20T04:45:00.662Z,7.20
2023-03-20T04:46:00.719Z,7.20
2023-03-20T04:47:00.645Z,7.20
2023-03-20T04:48:00.763Z,7.20
2023-03-20T04:49:00.775Z,7.20
2023-03-20T04:50:00.619Z,7.20
2023-03-20T04:51:00.635Z,7.20
2023-03-20T04:52:00.622Z,7.20
2023-03-20T04:53:00.734Z,7.20
2023-03-20T04:54:02.519Z,7.20
2023-03-20T04:55:00.703Z,7.20
2023-03-20T04:56:02.070Z,7.20
2023-03-20T04:57:00.644Z,7.20
2023-03-20T04:58:00.655Z,8.30
2023-03-20T04:59:00.623Z,8.30
2023-03-20T05:00:00.649Z,8.30
2023-03-20T05:01:00.731Z,8.30
2023-03-20T05:02:00.658Z,8.30
2023-03-20T05:03:00.656Z,8.30
2023-03-20T05:04:00.883Z,8.30
2023-03-20T05:05:00.632Z,8.30
2023-03-20T05:06:00.668Z,8.30
2023-03-20T05:07:00.626Z,8.30
2023-03-20T05:08:00.633Z,8.30
2023-03-20T05:09:00.654Z,8.30
2023-03-20T05:10:00.808Z,8.30
2023-03-20T05:11:00.620Z,8.30
2023-03-20T05:12:00.843Z,8.30
2023-03-20T05:13:00.637Z,8.30
2023-03-20T05:14:00.643Z,8.30
2023-03-20T05:15:00.678Z,8.30
2023-03-20T05:16:00.643Z,8.30
2023-03-20T05:17:00.716Z,8.30
2023-03-20T05:18:00.659Z,8.30
2023-03-20T05:19:00.641Z,8.30
2023-03-20T05:20:00.689Z,8.30
2023-03-20T05:21:00.635Z,8.30
2023-03-20T05:22:00.659Z,8.30
2023-03-20T05:23:00.915Z,8.30
2023-03-20T05:24:00.705Z,8.30
2023-03-20T05:25:00.621Z,8.30
2023-03-20T05:26:01.006Z,8.30
2023-03-20T05:27:00.656Z,8.30
2023-03-20T05:28:00.654Z,9.40
2023-03-20T05:29:00.642Z,9.40
2023-03-20T05:30:00.717Z,9.40
2023-03-20T05:31:00.718Z,9.40
2023-03-20T05:32:00.698Z,9.40
2023-03-20T05:33:00.734Z,9.40
2023-03-20T05:34:00.618Z,9.40
2023-03-20T05:35:00.628Z,9.40
2023-03-20T05:36:00.717Z,9.40
2023-03-20T05:37:00.745Z,9.40
2023-03-20T05:38:00.612Z,9.40
2023-03-20T05:39:00.651Z,9.40
2023-03-20T05:40:00.658Z,9.40
2023-03-20T05:41:00.785Z,9.40
2023-03-20T05:42:00.656Z,9.40
2023-03-20T05:43:00.681Z,9.40
2023-03-20T05:44:00.661Z,9.40
2023-03-20T05:45:00.679Z,9.40
2023-03-20T05:46:00.909Z,9.40
2023-03-20T05:47:00.646Z,9.40
2023-03-20T05:48:00.683Z,9.40
2023-03-20T05:49:00.646Z,9.40
2023-03-20T05:50:01.050Z,9.40
2023-03-20T05:51:00.673Z,9.40
2023-03-20T05:52:00.697Z,9.40
2023-03-20T05:53:00.689Z,9.40
2023-03-20T05:54:00.686Z,9.40
2023-03-20T05:55:00.705Z,9.40
2023-03-20T05:56:00.692Z,9.40
2023-03-20T05:57:00.765Z,9.40
2023-03-20T05:58:00.726Z,8.00
2023-03-20T05:59:00.706Z,8.00
2023-03-20T06:00:00.687Z,8.00
2023-03-20T06:01:00.617Z,8.00
2023-03-20T06:02:00.683Z,8.00
2023-03-20T06:03:00.667Z,8.00
2023-03-20T06:04:00.720Z,8.00
2023-03-20T06:05:00.610Z,8.00
2023-03-20T06:06:00.628Z,8.00
2023-03-20T06:07:00.658Z,8.00
2023-03-20T06:08:01.362Z,8.00
2023-03-20T06:09:00.609Z,8.00
2023-03-20T06:10:00.801Z,8.00
2023-03-20T06:11:00.827Z,8.00
2023-03-20T06:12:00.662Z,8.00
2023-03-20T06:13:00.749Z,8.00
2023-03-20T06:14:00.656Z,8.00
2023-03-20T06:15:00.657Z,8.00
2023-03-20T06:16:01.082Z,8.00
2023-03-20T06:17:00.706Z,8.00
2023-03-20T06:18:00.624Z,8.00
2023-03-20T06:19:00.655Z,8.00
2023-03-20T06:20:00.774Z,8.00
2023-03-20T06:21:00.633Z,8.00
2023-03-20T06:22:00.667Z,8.00
2023-03-20T06:23:00.658Z,8.00
2023-03-20T06:24:00.611Z,8.00
2023-03-20T06:25:00.845Z,8.00
2023-03-20T06:26:00.626Z,8.00
2023-03-20T06:27:00.805Z,8.00
2023-03-20T06:28:00.629Z,7.20
2023-03-20T06:29:00.640Z,7.20
2023-03-20T06:30:00.738Z,7.20
2023-03-20T06:31:00.744Z,7.20
2023-03-20T06:32:00.660Z,7.20
2023-03-20T06:33:00.687Z,7.20
2023-03-20T06:34:00.630Z,7.20
2023-03-20T06:35:00.671Z,7.20
2023-03-20T06:36:00.728Z,7.20
2023-03-20T06:37:00.617Z,7.20
2023-03-20T06:38:00.879Z,7.20
2023-03-20T06:39:00.639Z,7.20
2023-03-20T06:40:00.960Z,7.20
2023-03-20T06:41:00.625Z,7.20
2023-03-20T06:42:00.641Z,7.20
2023-03-20T06:43:00.635Z,7.20
2023-03-20T06:44:00.968Z,7.20
2023-03-20T06:45:00.886Z,7.20
2023-03-20T06:46:00.640Z,7.20
2023-03-20T06:47:00.649Z,7.20
2023-03-20T06:48:00.638Z,7.20
2023-03-20T06:49:00.621Z,7.20
2023-03-20T06:50:00.651Z,7.20
2023-03-20T06:51:00.664Z,7.20
2023-03-20T06:52:00.669Z,7.20
2023-03-20T06:53:00.663Z,7.20
2023-03-20T06:54:00.614Z,7.20
2023-03-20T06:55:00.748Z,7.20
2023-03-20T06:56:00.640Z,7.20
2023-03-20T06:57:00.673Z,7.20
2023-03-20T06:58:00.635Z,10.20
2023-03-20T06:59:00.686Z,10.20
2023-03-20T07:00:00.676Z,10.20
2023-03-20T07:01:00.628Z,10.20
2023-03-20T07:02:00.707Z,10.20
2023-03-20T07:03:02.285Z,10.20
2023-03-20T07:04:00.648Z,10.20
2023-03-20T07:05:01.024Z,10.20
2023-03-20T07:06:00.649Z,10.20
2023-03-20T07:07:00.634Z,10.20
2023-03-20T07:08:00.630Z,10.20
2023-03-20T07:09:00.671Z,10.20
2023-03-20T07:10:00.929Z,10.20
2023-03-20T07:11:00.666Z,10.20
2023-03-20T07:12:00.765Z,10.20
2023-03-20T07:13:00.623Z,10.20
2023-03-20T07:14:00.693Z,10.20
2023-03-20T07:15:00.626Z,10.20
2023-03-20T07:16:04.543Z,10.20
2023-03-20T07:17:00.699Z,10.20
2023-03-20T07:18:00.646Z,10.20
2023-03-20T07:19:00.628Z,10.20
2023-03-20T07:20:00.661Z,10.20
2023-03-20T07:21:01.782Z,10.20
2023-03-20T07:22:01.894Z,10.20
2023-03-20T07:23:00.622Z,10.20
2023-03-20T07:24:00.653Z,10.20
2023-03-20T07:25:00.646Z,10.20
2023-03-20T07:26:00.814Z,10.20
2023-03-20T07:27:00.643Z,10.20
2023-03-20T07:28:00.628Z,7.80
2023-03-20T07:29:00.629Z,7.80
2023-03-20T07:30:01.004Z,7.80
2023-03-20T07:31:00.653Z,7.80
2023-03-20T07:32:00.640Z,7.80
2023-03-20T07:33:00.694Z,7.80
2023-03-20T07:34:00.637Z,7.80
2023-03-20T07:35:00.622Z,7.80
2023-03-20T07:36:00.662Z,7.80
2023-03-20T07:37:00.870Z,7.80
2023-03-20T07:38:00.837Z,7.80
2023-03-20T07:39:00.646Z,7.80
2023-03-20T07:40:01.026Z,7.80
2023-03-20T07:41:00.617Z,7.80
2023-03-20T07:42:00.632Z,7.80
2023-03-20T07:43:00.623Z,7.80
2023-03-20T07:44:00.640Z,7.80
2023-03-20T07:45:00.619Z,7.80
2023-03-20T07:46:01.451Z,7.80
2023-03-20T07:47:00.632Z,7.80
2023-03-20T07:48:00.722Z,7.80
2023-03-20T07:49:00.874Z,7.80
2023-03-20T07:50:00.642Z,7.80
2023-03-20T07:51:00.877Z,7.80
2023-03-20T07:52:00.646Z,7.80
2023-03-20T07:53:00.637Z,7.80
2023-03-20T07:54:00.634Z,7.80
2023-03-20T07:55:00.644Z,7.80
2023-03-20T07:56:00.624Z,7.80
2023-03-20T07:57:00.658Z,7.80
2023-03-20T07:58:00.660Z,10.10
2023-03-20T07:59:00.664Z,10.10
2023-03-20T08:00:00.657Z,10.10
2023-03-20T08:01:00.769Z,10.10
2023-03-20T08:02:00.615Z,10.10
2023-03-20T08:03:00.797Z,10.10
2023-03-20T08:04:00.885Z,10.10
2023-03-20T08:05:00.620Z,10.10
2023-03-20T08:06:00.645Z,10.10
2023-03-20T08:07:00.763Z,10.10
2023-03-20T08:08:00.605Z,10.10
2023-03-20T08:09:00.922Z,10.10
2023-03-20T08:10:00.819Z,10.10
2023-03-20T08:11:00.833Z,10.10
2023-03-20T08:12:00.689Z,10.10
2023-03-20T08:13:00.631Z,10.10
2023-03-20T08:14:00.623Z,10.10
2023-03-20T08:15:00.647Z,10.10
2023-03-20T08:16:00.673Z,10.10
2023-03-20T08:17:13.593Z,10.10
2023-03-20T08:18:00.640Z,10.10
2023-03-20T08:19:00.640Z,10.10
2023-03-20T08:20:00.659Z,10.10
2023-03-20T08:21:00.688Z,10.10
2023-03-20T08:22:00.860Z,10.10
2023-03-20T08:23:00.624Z,10.10
2023-03-20T08:24:00.666Z,10.10
2023-03-20T08:25:00.725Z,10.10
2023-03-20T08:26:00.641Z,10.10
2023-03-20T08:27:00.642Z,10.10
2023-03-20T08:28:00.882Z,10.70
2023-03-20T08:29:00.710Z,10.70
2023-03-20T08:30:00.634Z,10.70
2023-03-20T08:31:00.713Z,10.70
2023-03-20T08:32:00.845Z,10.70
2023-03-20T08:33:00.705Z,10.70
2023-03-20T08:34:00.668Z,10.70
2023-03-20T08:35:00.786Z,10.70
2023-03-20T08:36:00.664Z,10.70
2023-03-20T08:37:02.130Z,10.70
2023-03-20T08:38:00.914Z,10.70
2023-03-20T08:39:00.650Z,10.70
2023-03-20T08:40:00.681Z,10.70
2023-03-20T08:41:00.638Z,10.70
2023-03-20T08:42:01.335Z,10.70
2023-03-20T08:43:00.615Z,10.70
2023-03-20T08:44:00.694Z,10.70
2023-03-20T08:45:00.691Z,10.70
2023-03-20T08:46:00.734Z,10.70
2023-03-20T08:47:00.616Z,10.70
2023-03-20T08:48:00.655Z,10.70
2023-03-20T08:49:00.640Z,10.70
2023-03-20T08:50:00.761Z,10.70
2023-03-20T08:51:00.685Z,10.70
2023-03-20T08:52:00.616Z,10.70
2023-03-20T08:53:00.615Z,10.70
2023-03-20T08:54:00.739Z,10.70
2023-03-20T08:55:00.694Z,10.70
2023-03-20T08:56:00.643Z,10.70
2023-03-20T08:57:00.641Z,10.70
2023-03-20T08:58:00.622Z,9.90
2023-03-20T08:59:00.630Z,9.90
2023-03-20T09:00:00.681Z,9.90
2023-03-20T09:01:04.805Z,9.90
2023-03-20T09:02:00.698Z,9.90
2023-03-20T09:03:00.721Z,9.90
2023-03-20T09:04:00.622Z,9.90
2023-03-20T09:05:00.985Z,9.90
2023-03-20T09:06:00.680Z,9.90
2023-03-20T09:07:00.616Z,9.90
2023-03-20T09:08:00.643Z,9.90
2023-03-20T09:09:00.616Z,9.90
2023-03-20T09:10:00.611Z,9.90
2023-03-20T09:11:00.781Z,9.90
2023-03-20T09:12:01.515Z,9.90
2023-03-20T09:13:00.630Z,9.90
2023-03-20T09:14:00.640Z,9.90
2023-03-20T09:15:01.074Z,9.90
2023-03-20T09:16:01.203Z,9.90
2023-03-20T09:17:00.612Z,9.90
2023-03-20T09:18:02.840Z,9.90
2023-03-20T09:19:00.650Z,9.90
2023-03-20T09:20:00.615Z,9.90
2023-03-20T09:21:00.658Z,9.90
2023-03-20T09:22:00.627Z,9.90
2023-03-20T09:23:00.635Z,9.90
2023-03-20T09:24:00.630Z,9.90
2023-03-20T09:25:00.629Z,9.90
2023-03-20T09:26:00.624Z,9.90
2023-03-20T09:27:03.092Z,9.90
2023-03-20T09:28:00.630Z,8.70
2023-03-20T09:29:00.625Z,8.70
2023-03-20T09:30:00.635Z,8.70
2023-03-20T09:31:00.710Z,8.70
2023-03-20T09:32:00.841Z,8.70
2023-03-20T09:33:00.687Z,8.70
2023-03-20T09:34:00.644Z,8.70
2023-03-20T09:35:01.265Z,8.70
2023-03-20T09:36:00.746Z,8.70
2023-03-20T09:37:00.637Z,8.70
2023-03-20T09:38:00.650Z,8.70
2023-03-20T09:39:00.645Z,8.70
2023-03-20T09:40:00.687Z,8.70
2023-03-20T09:41:01.670Z,8.70
2023-03-20T09:42:07.435Z,8.70
2023-03-20T09:43:08.722Z,8.70
2023-03-20T09:44:01.624Z,8.70
2023-03-20T09:45:06.713Z,8.70
2023-03-20T09:46:10.598Z,8.70
2023-03-20T09:47:19.958Z,8.70
2023-03-20T09:48:08.957Z,8.70
2023-03-20T09:49:01.649Z,8.70
2023-03-20T09:50:03.900Z,8.70
2023-03-20T09:51:06.210Z,8.70
2023-03-20T09:52:06.360Z,8.70
2023-03-20T09:53:04.281Z,8.70
2023-03-20T09:54:06.554Z,8.70
2023-03-20T09:55:05.321Z,8.70
2023-03-20T09:56:00.642Z,8.70
2023-03-20T09:57:01.469Z,8.70
2023-03-20T09:58:05.040Z,9.20
2023-03-20T09:59:02.107Z,9.20
2023-03-20T10:00:04.551Z,9.20
2023-03-20T10:01:01.892Z,9.20
2023-03-20T10:02:05.776Z,9.20
2023-03-20T10:03:02.658Z,9.20
2023-03-20T10:04:05.379Z,9.20
2023-03-20T10:05:02.914Z,9.20
2023-03-20T10:06:03.310Z,9.20
2023-03-20T10:07:03.209Z,9.20
2023-03-20T10:08:02.104Z,9.20
2023-03-20T10:09:01.645Z,9.20
2023-03-20T10:10:00.684Z,9.20
2023-03-20T10:11:03.921Z,9.20
2023-03-20T10:12:10.535Z,9.20
2023-03-20T10:13:07.655Z,9.20
2023-03-20T10:14:01.678Z,9.20
2023-03-20T10:15:08.055Z,9.20
2023-03-20T10:16:04.065Z,9.20
2023-03-20T10:17:07.028Z,9.20
2023-03-20T10:18:06.620Z,9.20
2023-03-20T10:19:10.544Z,9.20
2023-03-20T10:20:00.601Z,9.20
2023-03-20T10:21:05.485Z,9.20
2023-03-20T10:22:05.303Z,9.20
2023-03-20T10:23:10.550Z,9.20
2023-03-20T10:24:03.502Z,9.20
2023-03-20T10:25:03.943Z,9.20
2023-03-20T10:26:05.323Z,9.20
2023-03-20T10:27:04.883Z,9.20
2023-03-20T10:28:02.562Z,7.40
2023-03-20T10:29:04.591Z,7.40
2023-03-20T10:30:10.544Z,7.40
2023-03-20T10:31:10.556Z,7.40
2023-03-20T10:32:04.442Z,7.40
2023-03-20T10:33:01.668Z,7.40
2023-03-20T10:34:10.553Z,7.40
2023-03-20T10:35:10.523Z,7.40
2023-03-20T10:36:09.833Z,7.40
2023-03-20T10:37:10.523Z,7.40
2023-03-20T10:38:10.528Z,7.40
2023-03-20T10:39:10.548Z,7.40
2023-03-20T10:40:08.000Z,7.40
2023-03-20T10:41:01.344Z,7.40
2023-03-20T10:42:02.147Z,7.40
2023-03-20T10:43:02.684Z,7.40
2023-03-20T10:44:01.099Z,7.40
2023-03-20T10:45:05.042Z,7.40
2023-03-20T10:46:00.613Z,7.40
2023-03-20T10:47:02.599Z,7.40
2023-03-20T10:48:03.464Z,7.40
2023-03-20T10:49:04.057Z,7.40
2023-03-20T10:50:04.706Z,7.40
2023-03-20T10:51:01.690Z,7.40
2023-03-20T10:52:03.038Z,7.40
2023-03-20T10:53:01.753Z,7.40
2023-03-20T10:54:02.906Z,7.40
2023-03-20T10:55:10.528Z,7.40
2023-03-20T10:56:04.861Z,7.40
2023-03-20T10:57:01.937Z,7.40
2023-03-20T10:58:10.529Z,7.00
2023-03-20T10:59:10.526Z,7.00
2023-03-20T11:00:00.711Z,7.00
2023-03-20T11:01:00.721Z,7.00
2023-03-20T11:02:00.616Z,7.00
2023-03-20T11:03:00.725Z,7.00
2023-03-20T11:04:00.701Z,7.00
2023-03-20T11:05:09.933Z,7.00
2023-03-20T11:06:09.601Z,7.00
2023-03-20T11:07:08.364Z,7.00
2023-03-20T11:08:04.549Z,7.00
2023-03-20T11:09:10.537Z,7.00
2023-03-20T11:10:03.875Z,7.00
2023-03-20T11:11:01.801Z,7.00
2023-03-20T11:12:01.337Z,7.00
2023-03-20T11:13:10.532Z,7.00
2023-03-20T11:14:10.536Z,7.00
2023-03-20T11:15:03.409Z,7.00
2023-03-20T11:16:08.236Z,7.00
2023-03-20T11:17:02.700Z,7.00
2023-03-20T11:18:02.401Z,7.00
2023-03-20T11:19:06.065Z,7.00
2023-03-20T11:20:03.181Z,7.00
2023-03-20T11:21:01.139Z,7.00
2023-03-20T11:22:07.098Z,7.00
2023-03-20T11:23:03.032Z,7.00
2023-03-20T11:24:00.847Z,7.00
2023-03-20T11:25:00.983Z,7.00
2023-03-20T11:26:03.016Z,7.00
2023-03-20T11:27:10.566Z,7.00
2023-03-20T11:28:10.534Z,5.80
2023-03-20T11:29:00.743Z,5.80
2023-03-20T11:30:02.956Z,5.80
2023-03-20T11:31:05.431Z,5.80
2023-03-20T11:32:05.507Z,5.80
2023-03-20T11:33:00.732Z,5.80
2023-03-20T11:34:01.646Z,5.80
2023-03-20T11:35:10.525Z,5.80
2023-03-20T11:36:00.721Z,5.80
2023-03-20T11:37:09.621Z,5.80
2023-03-20T11:38:10.549Z,5.80
2023-03-20T11:39:10.578Z,5.80
2023-03-20T11:40:08.128Z,5.80
2023-03-20T11:41:03.561Z,5.80
2023-03-20T11:42:01.097Z,5.80
2023-03-20T11:43:00.636Z,5.80
2023-03-20T11:44:00.649Z,5.80
2023-03-20T11:45:02.861Z,5.80
2023-03-20T11:46:00.934Z,5.80
2023-03-20T11:47:01.624Z,5.80
2023-03-20T11:48:02.697Z,5.80
2023-03-20T11:49:10.542Z,5.80
2023-03-20T11:50:02.842Z,5.80
2023-03-20T11:51:03.482Z,5.80
2023-03-20T11:52:10.038Z,5.80
2023-03-20T11:53:02.050Z,5.80
2023-03-20T11:54:02.463Z,5.80
2023-03-20T11:55:02.398Z,5.80
2023-03-20T11:56:04.435Z,5.80
2023-03-20T11:57:00.624Z,5.80
2023-03-20T11:58:02.463Z,5.50
2023-03-20T11:59:02.279Z,5.50
2023-03-20T12:00:04.436Z,5.50
2023-03-20T12:01:00.805Z,5.50
2023-03-20T12:02:02.121Z,5.50
2023-03-20T12:03:00.935Z,5.50
2023-03-20T12:04:03.087Z,5.50
2023-03-20T12:05:01.044Z,5.50
2023-03-20T12:06:00.947Z,5.50
2023-03-20T12:07:09.594Z,5.50
2023-03-20T12:08:10.531Z,5.50
2023-03-20T12:09:04.449Z,5.50
2023-03-20T12:10:03.211Z,5.50
2023-03-20T12:11:05.809Z,5.50
2023-03-20T12:12:10.548Z,5.50
2023-03-20T12:13:04.826Z,5.50
2023-03-20T12:14:01.935Z,5.50
2023-03-20T12:15:07.621Z,5.50
2023-03-20T12:16:01.987Z,5.50
2023-03-20T12:17:10.538Z,5.50
2023-03-20T12:18:00.607Z,5.50
2023-03-20T12:19:04.304Z,5.50
2023-03-20T12:20:04.510Z,5.50
2023-03-20T12:21:00.611Z,5.50
2023-03-20T12:22:07.958Z,5.50
2023-03-20T12:23:01.664Z,5.50
2023-03-20T12:24:03.468Z,5.50
2023-03-20T12:25:06.101Z,5.50
2023-03-20T12:26:05.594Z,5.50
2023-03-20T12:27:07.970Z,5.50
2023-03-20T12:28:03.061Z,2.90
2023-03-20T12:29:05.761Z,2.90
2023-03-20T12:30:09.919Z,2.90
2023-03-20T12:31:10.617Z,2.90
2023-03-20T12:32:04.002Z,2.90
2023-03-20T12:33:05.821Z,2.90
2023-03-20T12:34:04.265Z,2.90
2023-03-20T12:35:09.044Z,2.90
2023-03-20T12:36:01.691Z,2.90
2023-03-20T12:37:00.921Z,2.90
2023-03-20T12:38:00.843Z,2.90
2023-03-20T12:39:01.951Z,2.90
2023-03-20T12:40:01.621Z,2.90
2023-03-20T12:41:03.931Z,2.90
2023-03-20T12:42:08.023Z,2.90
2023-03-20T12:43:10.557Z,2.90
2023-03-20T12:44:07.132Z,2.90
2023-03-20T12:45:08.007Z,2.90
2023-03-20T12:46:10.006Z,2.90
2023-03-20T12:47:00.627Z,2.90
2023-03-20T12:48:03.942Z,2.90
2023-03-20T12:49:01.626Z,2.90
2023-03-20T12:50:09.122Z,2.90
2023-03-20T12:51:13.184Z,2.90
2023-03-20T12:52:05.995Z,2.90
2023-03-20T12:53:06.699Z,2.90
2023-03-20T12:54:10.549Z,2.90
2023-03-20T12:55:01.911Z,2.90
2023-03-20T12:56:10.542Z,2.90
2023-03-20T12:57:07.373Z,2.90
2023-03-20T12:58:03.904Z,3.00
2023-03-20T12:59:06.991Z,3.00
2023-03-20T13:00:03.926Z,3.00
2023-03-20T13:01:03.593Z,3.00
2023-03-20T13:02:10.539Z,3.00
2023-03-20T13:03:05.408Z,3.00
2023-03-20T13:04:03.904Z,3.00
2023-03-20T13:05:07.217Z,3.00
2023-03-20T13:06:08.050Z,3.00
2023-03-20T13:07:01.643Z,3.00
2023-03-20T13:08:00.619Z,3.00
2023-03-20T13:09:10.546Z,3.00
2023-03-20T13:10:10.683Z,3.00
2023-03-20T13:11:10.536Z,3.00
2023-03-20T13:12:10.541Z,3.00
2023-03-20T13:13:06.505Z,3.00
2023-03-20T13:14:08.940Z,3.00